createdAt,value
2014-09-01T00:00:27.909Z,71.91
2014-09-01T00:01:32.583Z,71.99
2014-09-01T00:02:37.272Z,71.47
2014-09-01T00:03:41.962Z,71.3
2014-09-01T00:04:46.635Z,72
2014-09-01T00:05:51.622Z,71.48
2014-09-01T00:06:56.296Z,70.99
2014-09-01T00:08:01.282Z,71.74
2014-09-01T00:09:05.973Z,71.77
2014-09-01T00:10:10.662Z,72.06
2014-09-01T00:11:15.632Z,71.81
2014-09-01T00:12:20.322Z,71.48
2014-09-01T00:13:25.012Z,71.42
2014-09-01T00:14:29.998Z,71.31
2014-09-01T00:15:34.969Z,72.38
2014-09-01T00:16:39.658Z,71.56
2014-09-01T00:17:44.332Z,72.07
2014-09-01T00:18:49.022Z,71.6
2014-09-01T00:19:54.008Z,72.31
2014-09-01T00:20:58.979Z,72.1
2014-09-01T00:22:03.669Z,72.44
2014-09-01T00:23:08.359Z,72.8
2014-09-01T00:24:13.032Z,72.42
2014-09-01T00:25:18.019Z,72.56
2014-09-01T00:26:22.724Z,72.32
2014-09-01T00:27:27.710Z,72.55
2014-09-01T00:28:32.400Z,72.52
2014-09-01T00:29:37.074Z,72.35
2014-09-01T00:30:42.060Z,72.14
2014-09-01T00:31:46.750Z,71.68
2014-09-01T00:32:51.424Z,72.03
2014-09-01T00:33:56.410Z,72.01
2014-09-01T00:35:01.100Z,72.35
2014-09-01T00:36:05.775Z,72.73
2014-09-01T00:37:10.479Z,73.03
2014-09-01T00:38:15.168Z,72.38
2014-09-01T00:39:20.155Z,72.19
2014-09-01T00:40:24.829Z,72.53
2014-09-01T00:41:29.519Z,72.57
2014-09-01T00:42:34.192Z,72.59
2014-09-01T00:43:39.179Z,72.18
2014-09-01T00:44:43.853Z,72.01
2014-09-01T00:45:48.543Z,72.48
2014-09-01T00:46:53.513Z,72.58
2014-09-01T00:47:58.203Z,72.4
2014-09-01T00:49:02.877Z,72.43
2014-09-01T00:50:07.567Z,72.44
2014-09-01T00:51:12.240Z,72.28
2014-09-01T00:52:16.931Z,72.5
2014-09-01T00:53:21.604Z,72.49
2014-09-01T00:54:26.294Z,72.29
2014-09-01T00:55:30.967Z,72.92
2014-09-01T00:56:35.657Z,72.96
2014-09-01T00:57:40.331Z,73.06
2014-09-01T00:58:45.318Z,72.8
2014-09-01T00:59:49.991Z,72.64
2014-09-01T01:00:54.681Z,72.82
2014-09-01T01:01:59.355Z,72.83
2014-09-01T01:03:04.044Z,73.01
2014-09-01T01:04:08.718Z,72.91
2014-09-01T01:05:13.706Z,72.75
2014-09-01T01:06:18.379Z,73.46
2014-09-01T01:07:23.068Z,73.46
2014-09-01T01:08:27.757Z,73.72
2014-09-01T01:09:32.432Z,73.66
2014-09-01T01:10:37.418Z,73.54
2014-09-01T01:11:42.093Z,73.36
2014-09-01T01:12:46.782Z,73.41
2014-09-01T01:13:51.456Z,73.72
2014-09-01T01:14:56.144Z,73.4
2014-09-01T01:16:00.866Z,73.38
2014-09-01T01:17:04.853Z,73.53
2014-09-01T01:18:09.542Z,73.71
2014-09-01T01:19:14.216Z,73.79
2014-09-01T01:20:18.905Z,73.35
2014-09-01T01:21:23.579Z,73.45
2014-09-01T01:22:28.269Z,73
2014-09-01T01:23:32.255Z,73.1
2014-09-01T01:24:36.929Z,73.17
2014-09-01T01:25:41.916Z,73.02
2014-09-01T01:26:46.605Z,73.32
2014-09-01T01:27:51.279Z,73.46
2014-09-01T01:28:55.969Z,73.09
2014-09-01T01:30:00.643Z,73.09
2014-09-01T01:31:05.333Z,73.3
2014-09-01T01:32:10.007Z,72.94
2014-09-01T01:33:14.696Z,72.79
2014-09-01T01:34:18.682Z,73.07
2014-09-01T01:35:23.372Z,72.62
2014-09-01T01:36:28.046Z,72.88
2014-09-01T01:37:32.735Z,73.36
2014-09-01T01:38:37.409Z,73.55
2014-09-01T01:39:42.099Z,73.7
2014-09-01T01:40:47.086Z,73.32
2014-09-01T01:41:51.776Z,73.22
2014-09-01T01:42:56.449Z,73.6
2014-09-01T01:44:01.139Z,73.94
2014-09-01T01:45:05.125Z,73.79
2014-09-01T01:46:09.814Z,73.9
2014-09-01T01:47:14.488Z,73.57
2014-09-01T01:48:19.178Z,73.18
2014-09-01T01:49:23.852Z,72.97
2014-09-01T01:50:28.542Z,73.45
2014-09-01T01:51:33.215Z,73.36
2014-09-01T01:52:37.905Z,72.95
2014-09-01T01:53:42.579Z,72.89
2014-09-01T01:54:47.268Z,72.69
2014-09-01T01:55:51.942Z,72.92
2014-09-01T01:56:56.632Z,73
2014-09-01T01:58:01.307Z,72.62
2014-09-01T01:59:05.996Z,72.43
2014-09-01T02:00:10.669Z,71.85
2014-09-01T02:01:15.359Z,71.89
2014-09-01T02:02:20.049Z,72.48
2014-09-01T02:03:24.738Z,72.93
2014-09-01T02:04:29.412Z,72.59
2014-09-01T02:05:34.102Z,72.57
2014-09-01T02:06:38.088Z,72.51
2014-09-01T02:07:42.778Z,72.96
2014-09-01T02:08:47.453Z,73.16
2014-09-01T02:09:52.141Z,73.55
2014-09-01T02:10:56.815Z,73.4
2014-09-01T02:12:01.504Z,72.92
2014-09-01T02:13:06.179Z,73.57
2014-09-01T02:14:10.869Z,73.37
2014-09-01T02:15:15.542Z,72.52
2014-09-01T02:16:20.529Z,72.94
2014-09-01T02:17:25.203Z,72.38
2014-09-01T02:18:29.891Z,73.08
2014-09-01T02:19:34.566Z,73.6
2014-09-01T02:20:39.256Z,73.29
2014-09-01T02:21:43.930Z,72.75
2014-09-01T02:22:48.917Z,72.83
2014-09-01T02:23:53.590Z,73.21
2014-09-01T02:24:58.279Z,72.95
2014-09-01T02:26:02.953Z,73.11
2014-09-01T02:27:07.643Z,72.87
2014-09-01T02:28:12.317Z,72.88
2014-09-01T02:29:17.007Z,73.17
2014-09-01T02:30:21.681Z,72.99
2014-09-01T02:31:26.371Z,73.02
2014-09-01T02:32:31.044Z,72.93
2014-09-01T02:33:36.030Z,72.91
2014-09-01T02:34:40.719Z,73.17
2014-09-01T02:35:45.410Z,73.25
2014-09-01T02:36:50.084Z,72.76
2014-09-01T02:37:55.070Z,72.74
2014-09-01T02:38:59.744Z,72.85
2014-09-01T02:40:04.730Z,72.7
2014-09-01T02:41:09.404Z,72.89
2014-09-01T02:42:14.094Z,72.96
2014-09-01T02:43:18.769Z,72.89
2014-09-01T02:44:23.504Z,73.01
2014-09-01T02:45:28.193Z,72.91
2014-09-01T02:46:32.868Z,72.8
2014-09-01T02:47:37.558Z,72.95
2014-09-01T02:48:42.231Z,72.03
2014-09-01T02:49:46.233Z,72.42
2014-09-01T02:50:50.908Z,73.07
2014-09-01T02:51:55.597Z,73.24
2014-09-01T02:53:00.583Z,73.18
2014-09-01T02:54:05.257Z,73.46
2014-09-01T02:55:09.947Z,73.26
2014-09-01T02:56:14.621Z,72.72
2014-09-01T02:57:18.623Z,73.66
2014-09-01T02:58:23.298Z,73.41
2014-09-01T02:59:27.987Z,73.85
2014-09-01T03:00:32.660Z,73.46
2014-09-01T03:01:37.349Z,73.28
2014-09-01T03:02:42.024Z,73
2014-09-01T03:03:46.714Z,73.51
2014-09-01T03:04:51.387Z,73.44
2014-09-01T03:05:56.374Z,73.28
2014-09-01T03:07:01.048Z,73.02
2014-09-01T03:08:06.034Z,73.07
2014-09-01T03:09:10.708Z,73.35
2014-09-01T03:10:15.398Z,73.37
2014-09-01T03:11:19.400Z,73.03
2014-09-01T03:12:24.075Z,73.62
2014-09-01T03:13:29.061Z,73.59
2014-09-01T03:14:33.734Z,73.28
2014-09-01T03:15:38.424Z,73.12
2014-09-01T03:16:43.395Z,73.28
2014-09-01T03:17:48.085Z,74.02
2014-09-01T03:18:52.758Z,73.49
2014-09-01T03:19:57.448Z,73.35
2014-09-01T03:21:02.418Z,73.42
2014-09-01T03:22:07.405Z,73.22
2014-09-01T03:23:12.079Z,72.89
2014-09-01T03:24:17.065Z,72.55
2014-09-01T03:25:21.739Z,72.44
2014-09-01T03:26:26.726Z,72.46
2014-09-01T03:27:31.400Z,72.44
2014-09-01T03:28:36.090Z,72.1
2014-09-01T03:29:40.076Z,72.49
2014-09-01T03:30:44.797Z,72.52
2014-09-01T03:31:49.782Z,72.68
2014-09-01T03:32:54.457Z,72.95
2014-09-01T03:33:59.444Z,72.71
2014-09-01T03:35:04.118Z,72.58
2014-09-01T03:36:08.807Z,72.21
2014-09-01T03:37:13.481Z,72
2014-09-01T03:38:18.467Z,72.5
2014-09-01T03:39:23.141Z,72.26
2014-09-01T03:40:27.831Z,72.08
2014-09-01T03:41:32.506Z,72.67
2014-09-01T03:42:37.179Z,72.81
2014-09-01T03:43:41.868Z,72.52
2014-09-01T03:44:46.542Z,72.45
2014-09-01T03:45:51.231Z,72.42
2014-09-01T03:46:55.906Z,72.11
2014-09-01T03:48:00.893Z,72.23
2014-09-01T03:49:05.863Z,71.78
2014-09-01T03:50:10.850Z,71.93
2014-09-01T03:51:15.820Z,71.54
2014-09-01T03:52:20.807Z,71.48
2014-09-01T03:53:25.778Z,71.41
2014-09-01T03:54:30.764Z,71.49
2014-09-01T03:55:35.438Z,71.54
2014-09-01T03:56:40.127Z,71.61
2014-09-01T03:57:44.801Z,72.51
2014-09-01T03:58:49.491Z,72.54
2014-09-01T03:59:54.181Z,72.3
2014-09-01T04:00:58.168Z,72.43
2014-09-01T04:02:02.857Z,72.71
2014-09-01T04:03:07.530Z,72.22
2014-09-01T04:04:12.219Z,71.86
2014-09-01T04:05:17.191Z,71.94
2014-09-01T04:06:21.881Z,72.22
2014-09-01T04:07:26.555Z,72.25
2014-09-01T04:08:31.244Z,72.4
2014-09-01T04:09:35.918Z,72.39
2014-09-01T04:10:40.607Z,72.22
2014-09-01T04:11:45.578Z,72.33
2014-09-01T04:12:50.252Z,72.59
2014-09-01T04:13:54.942Z,72.45
2014-09-01T04:14:59.616Z,72.52
2014-09-01T04:16:04.603Z,72.26
2014-09-01T04:17:09.276Z,72.34
2014-09-01T04:18:13.966Z,71.89
2014-09-01T04:19:18.640Z,72.35
2014-09-01T04:20:23.626Z,72.88
2014-09-01T04:21:28.316Z,72.91
2014-09-01T04:22:32.990Z,72.73
2014-09-01T04:23:37.976Z,72.06
2014-09-01T04:24:42.947Z,71.87
2014-09-01T04:25:46.965Z,72.16
2014-09-01T04:26:51.935Z,72.37
2014-09-01T04:27:56.922Z,71.96
2014-09-01T04:29:01.612Z,72.09
2014-09-01T04:30:06.285Z,72.25
2014-09-01T04:31:10.976Z,72.12
2014-09-01T04:32:15.649Z,71.94
2014-09-01T04:33:20.339Z,71.47
2014-09-01T04:34:25.012Z,71.48
2014-09-01T04:35:29.999Z,71.98
2014-09-01T04:36:34.970Z,72.4
2014-09-01T04:37:39.659Z,71.99
2014-09-01T04:38:44.349Z,71.65
2014-09-01T04:39:49.023Z,72.07
2014-09-01T04:40:53.712Z,72.26
2014-09-01T04:41:58.386Z,72.01
2014-09-01T04:43:02.388Z,72.39
2014-09-01T04:44:07.078Z,72.57
2014-09-01T04:45:11.753Z,72.42
2014-09-01T04:46:16.442Z,72.52
2014-09-01T04:47:21.115Z,72.17
2014-09-01T04:48:25.804Z,72.08
2014-09-01T04:49:30.479Z,71.89
2014-09-01T04:50:35.168Z,72.22
2014-09-01T04:51:39.842Z,72.04
2014-09-01T04:52:44.532Z,72.66
2014-09-01T04:53:49.206Z,72.69
2014-09-01T04:54:53.927Z,72.59
2014-09-01T04:55:58.616Z,72.46
2014-09-01T04:57:03.587Z,72.24
2014-09-01T04:58:08.278Z,72.39
2014-09-01T04:59:13.264Z,71.88
2014-09-01T05:00:17.937Z,71.95
2014-09-01T05:01:22.626Z,72.59
2014-09-01T05:02:27.301Z,72.17
2014-09-01T05:03:31.991Z,72.2
2014-09-01T05:04:36.665Z,72.28
2014-09-01T05:05:41.354Z,71.95
2014-09-01T05:06:46.044Z,73.02
2014-09-01T05:07:51.030Z,72.81
2014-09-01T05:08:56.016Z,72.34
2014-09-01T05:10:00.706Z,72.41
2014-09-01T05:11:05.677Z,72.83
2014-09-01T05:12:10.366Z,72.61
2014-09-01T05:13:15.352Z,72.56
2014-09-01T05:14:20.324Z,72.89
2014-09-01T05:15:25.013Z,72.92
2014-09-01T05:16:29.703Z,72.86
2014-09-01T05:17:34.377Z,72.55
2014-09-01T05:18:39.067Z,72.9
2014-09-01T05:19:43.772Z,72.49
2014-09-01T05:20:48.446Z,71.99
2014-09-01T05:21:53.432Z,71.66
2014-09-01T05:22:58.403Z,71.65
2014-09-01T05:24:03.092Z,71.76
2014-09-01T05:25:07.782Z,71.65
2014-09-01T05:26:12.472Z,71.76
2014-09-01T05:27:17.442Z,72.22
2014-09-01T05:28:22.146Z,71.82
2014-09-01T05:29:27.179Z,72.06
2014-09-01T05:30:31.898Z,72.26
2014-09-01T05:31:36.931Z,71.69
2014-09-01T05:32:41.666Z,71.66
2014-09-01T05:33:46.661Z,71.58
2014-09-01T05:34:51.367Z,71.62
2014-09-01T05:35:55.385Z,70.98
2014-09-01T05:37:00.075Z,71.12
2014-09-01T05:38:05.077Z,71.79
2014-09-01T05:39:09.774Z,72.29
2014-09-01T05:40:14.468Z,71.65
2014-09-01T05:41:19.164Z,71.47
2014-09-01T05:42:23.843Z,71.77
2014-09-01T05:43:28.537Z,71.49
2014-09-01T05:44:33.228Z,71.74
2014-09-01T05:45:38.218Z,71.74
2014-09-01T05:46:42.893Z,71.22
2014-09-01T05:47:47.585Z,71.1
2014-09-01T05:48:52.276Z,71.07
2014-09-01T05:49:56.951Z,70.88
2014-09-01T05:51:01.641Z,70.99
2014-09-01T05:52:06.627Z,71.06
2014-09-01T05:53:11.600Z,70.95
2014-09-01T05:54:16.587Z,71.04
2014-09-01T05:55:21.276Z,71.25
2014-09-01T05:56:25.967Z,71.38
2014-09-01T05:57:30.938Z,71.39
2014-09-01T05:58:35.627Z,71.72
2014-09-01T05:59:39.629Z,71.75
2014-09-01T06:00:44.303Z,71.82
2014-09-01T06:01:48.993Z,71.49
2014-09-01T06:02:53.683Z,71.12
2014-09-01T06:03:58.357Z,71.24
2014-09-01T06:05:03.343Z,70.47
2014-09-01T06:06:08.032Z,70.38
2014-09-01T06:07:12.706Z,70.1
2014-09-01T06:08:17.396Z,70.2
2014-09-01T06:09:22.070Z,69.99
2014-09-01T06:10:26.776Z,69.28
2014-09-01T06:11:31.481Z,68.79
2014-09-01T06:12:36.154Z,68.47
2014-09-01T06:13:41.140Z,68.02
2014-09-01T06:14:46.112Z,68.05
2014-09-01T06:15:50.114Z,67.79
2014-09-01T06:16:54.803Z,67.67
2014-09-01T06:17:59.493Z,68.53
2014-09-01T06:19:04.182Z,69.12
2014-09-01T06:20:08.856Z,69.63
2014-09-01T06:21:13.546Z,69.21
2014-09-01T06:22:18.235Z,68.59
2014-09-01T06:23:22.925Z,67.95
2014-09-01T06:24:27.599Z,68.26
2014-09-01T06:25:32.289Z,68.05
2014-09-01T06:26:36.962Z,67.92
2014-09-01T06:27:41.949Z,67.98
2014-09-01T06:28:46.623Z,68.89
2014-09-01T06:29:51.609Z,68.27
2014-09-01T06:30:56.299Z,67.7
2014-09-01T06:32:01.270Z,67.67
2014-09-01T06:33:05.959Z,67.86
2014-09-01T06:34:10.633Z,68.59
2014-09-01T06:35:15.323Z,68.41
2014-09-01T06:36:19.997Z,68.25
2014-09-01T06:37:24.983Z,69.43
2014-09-01T06:38:29.673Z,70.81
2014-09-01T06:39:34.363Z,69.86
2014-09-01T06:40:39.333Z,69.63
2014-09-01T06:41:44.023Z,69.01
2014-09-01T06:42:48.697Z,68.92
2014-09-01T06:43:53.387Z,69.03
2014-09-01T06:44:58.061Z,69.29
2014-09-01T06:46:02.750Z,69.81
2014-09-01T06:47:07.736Z,69.52
2014-09-01T06:48:12.410Z,68.95
2014-09-01T06:49:17.100Z,69.63
2014-09-01T06:50:21.774Z,69.48
2014-09-01T06:51:26.463Z,68.33
2014-09-01T06:52:31.450Z,68.99
2014-09-01T06:53:36.124Z,69.56
2014-09-01T06:54:40.814Z,69.47
2014-09-01T06:55:45.487Z,68.57
2014-09-01T06:56:50.177Z,68.97
2014-09-01T06:57:55.148Z,68.89
2014-09-01T06:58:59.838Z,69.06
2014-09-01T07:00:04.511Z,69.17
2014-09-01T07:01:09.497Z,69.42
2014-09-01T07:02:14.186Z,69.81
2014-09-01T07:03:18.861Z,69.48
2014-09-01T07:04:24.144Z,70.21
2014-09-01T07:05:28.818Z,69.37
2014-09-01T07:06:33.805Z,68.43
2014-09-01T07:07:38.495Z,68.27
2014-09-01T07:08:43.168Z,68.3
2014-09-01T07:09:47.859Z,68.5
2014-09-01T07:10:52.564Z,67.72
2014-09-01T07:11:57.238Z,67.5
2014-09-01T07:13:01.927Z,67.32
2014-09-01T07:14:06.912Z,66.98
2014-09-01T07:15:11.587Z,67.41
2014-09-01T07:16:16.277Z,67.39
2014-09-01T07:17:20.950Z,67.45
2014-09-01T07:18:25.640Z,68.04
2014-09-01T07:19:30.611Z,67.72
2014-09-01T07:20:35.894Z,67.73
2014-09-01T07:21:40.584Z,66.87
2014-09-01T07:22:45.259Z,67.35
2014-09-01T07:23:49.948Z,67.52
2014-09-01T07:24:54.918Z,66.77
2014-09-01T07:25:59.607Z,67.18
2014-09-01T07:27:04.282Z,66.83
2014-09-01T07:28:08.972Z,66.66
2014-09-01T07:29:13.646Z,66.98
2014-09-01T07:30:18.335Z,66.91
2014-09-01T07:31:23.025Z,67.59
2014-09-01T07:32:27.698Z,67.42
2014-09-01T07:33:32.388Z,66.99
2014-09-01T07:34:37.062Z,67.56
2014-09-01T07:35:42.048Z,67.94
2014-09-01T07:36:46.722Z,67.45
2014-09-01T07:37:51.413Z,66.99
2014-09-01T07:38:56.133Z,66.76
2014-09-01T07:40:00.822Z,67.38
2014-09-01T07:41:05.793Z,67.98
2014-09-01T07:42:10.779Z,67.38
2014-09-01T07:43:15.468Z,66.44
2014-09-01T07:44:20.456Z,67.35
2014-09-01T07:45:25.129Z,66.78
2014-09-01T07:46:29.819Z,66.7
2014-09-01T07:47:34.493Z,66.2
2014-09-01T07:48:39.183Z,66.04
2014-09-01T07:49:43.856Z,65.33
2014-09-01T07:50:48.546Z,65.68
2014-09-01T07:51:53.252Z,65.86
2014-09-01T07:52:57.941Z,65.18
2014-09-01T07:54:02.912Z,65.31
2014-09-01T07:55:07.601Z,64.62
2014-09-01T07:56:12.322Z,64.6
2014-09-01T07:57:17.293Z,64.47
2014-09-01T07:58:21.983Z,65.38
2014-09-01T07:59:26.656Z,65.27
2014-09-01T08:00:31.346Z,64.56
2014-09-01T08:01:36.036Z,64.85
2014-09-01T08:02:41.303Z,64.52
2014-09-01T08:03:46.290Z,64.82
2014-09-01T08:04:50.965Z,65.95
2014-09-01T08:05:55.950Z,65.81
2014-09-01T08:07:00.921Z,66.26
2014-09-01T08:08:05.610Z,65.76
2014-09-01T08:09:10.284Z,65.33
2014-09-01T08:10:15.271Z,65.86
2014-09-01T08:11:20.258Z,65.34
2014-09-01T08:12:24.931Z,65.14
2014-09-01T08:13:29.621Z,65.36
2014-09-01T08:14:34.295Z,65.5
2014-09-01T08:15:38.985Z,65.21
2014-09-01T08:16:43.658Z,65.13
2014-09-01T08:17:48.348Z,66.61
2014-09-01T08:18:53.022Z,65.02
2014-09-01T08:19:58.008Z,65.51
2014-09-01T08:21:02.698Z,64.36
2014-09-01T08:22:07.373Z,63.97
2014-09-01T08:23:12.061Z,63.43
2014-09-01T08:24:16.735Z,64.3
2014-09-01T08:25:21.722Z,64.1
2014-09-01T08:26:26.396Z,65.14
2014-09-01T08:27:31.383Z,64.96
2014-09-01T08:28:36.072Z,63.98
2014-09-01T08:29:40.762Z,63.67
2014-09-01T08:30:45.732Z,63.87
2014-09-01T08:31:50.422Z,64.2
2014-09-01T08:32:55.096Z,64.1
2014-09-01T08:34:00.082Z,64.97
2014-09-01T08:35:04.756Z,64.77
2014-09-01T08:36:09.446Z,64.35
2014-09-01T08:37:14.135Z,65.55
2014-09-01T08:38:18.809Z,65.56
2014-09-01T08:39:23.795Z,63.8
2014-09-01T08:40:28.485Z,63.83
2014-09-01T08:41:33.456Z,63.86
2014-09-01T08:42:38.145Z,64.43
2014-09-01T08:43:42.834Z,64.77
2014-09-01T08:44:47.525Z,64.38
2014-09-01T08:45:52.214Z,64.5
2014-09-01T08:46:56.888Z,63.86
2014-09-01T08:48:01.578Z,64.82
2014-09-01T08:49:06.252Z,65.08
2014-09-01T08:50:11.519Z,65.1
2014-09-01T08:51:16.178Z,64.8
2014-09-01T08:52:20.852Z,64.79
2014-09-01T08:53:25.542Z,64.61
2014-09-01T08:54:30.512Z,65.23
2014-09-01T08:55:35.202Z,65.35
2014-09-01T08:56:39.876Z,65.44
2014-09-01T08:57:44.581Z,64.9
2014-09-01T08:58:49.255Z,64.5
2014-09-01T08:59:53.945Z,64.37
2014-09-01T09:00:58.618Z,64.25
2014-09-01T09:02:03.308Z,65.53
2014-09-01T09:03:07.982Z,65.34
2014-09-01T09:04:12.671Z,64.59
2014-09-01T09:05:17.361Z,65.25
2014-09-01T09:06:22.035Z,64.7
2014-09-01T09:07:26.038Z,64.77
2014-09-01T09:08:30.712Z,65.18
2014-09-01T09:09:35.698Z,64.55
2014-09-01T09:10:40.371Z,64.76
2014-09-01T09:11:45.061Z,64.56
2014-09-01T09:12:49.735Z,65.44
2014-09-01T09:13:54.424Z,65.19
2014-09-01T09:14:59.114Z,64.97
2014-09-01T09:16:03.788Z,66.64
2014-09-01T09:17:08.478Z,65.43
2014-09-01T09:18:13.151Z,65.57
2014-09-01T09:19:17.841Z,65.88
2014-09-01T09:20:22.515Z,66.95
2014-09-01T09:21:27.204Z,66.35
2014-09-01T09:22:31.894Z,66.88
2014-09-01T09:23:36.568Z,67.88
2014-09-01T09:24:41.257Z,67.12
2014-09-01T09:25:45.931Z,67.39
2014-09-01T09:26:50.621Z,67.31
2014-09-01T09:27:55.295Z,66.92
2014-09-01T09:29:00.281Z,68.08
2014-09-01T09:30:05.268Z,67.28
2014-09-01T09:31:10.239Z,66.94
2014-09-01T09:32:14.928Z,67.07
2014-09-01T09:33:19.602Z,66.71
2014-09-01T09:34:24.292Z,66.76
2014-09-01T09:35:29.576Z,66.44
2014-09-01T09:36:34.266Z,66.29
2014-09-01T09:37:38.954Z,66.21
2014-09-01T09:38:43.628Z,66.04
2014-09-01T09:39:48.318Z,65.75
2014-09-01T09:40:53.008Z,66.01
2014-09-01T09:41:57.681Z,65.34
2014-09-01T09:43:02.370Z,65.77
2014-09-01T09:44:07.045Z,65.33
2014-09-01T09:45:11.734Z,65.43
2014-09-01T09:46:16.424Z,65.74
2014-09-01T09:47:21.113Z,67.2
2014-09-01T09:48:25.803Z,66.74
2014-09-01T09:49:30.774Z,66.3
2014-09-01T09:50:35.463Z,66.08
2014-09-01T09:51:40.153Z,65.78
2014-09-01T09:52:44.842Z,65.24
2014-09-01T09:53:49.517Z,66.4
2014-09-01T09:54:54.206Z,66.01
2014-09-01T09:55:58.880Z,66.59
2014-09-01T09:57:03.866Z,66.24
2014-09-01T09:58:08.556Z,66.81
2014-09-01T09:59:13.230Z,66.73
2014-09-01T10:00:17.920Z,67.01
2014-09-01T10:01:22.609Z,67.48
2014-09-01T10:02:26.596Z,67.22
2014-09-01T10:03:31.285Z,66.99
2014-09-01T10:04:35.975Z,66.98
2014-09-01T10:05:40.649Z,67.2
2014-09-01T10:06:45.339Z,67.15
2014-09-01T10:07:50.012Z,67.43
2014-09-01T10:08:54.703Z,67.12
2014-09-01T10:09:59.438Z,67.65
2014-09-01T10:11:04.409Z,68.23
2014-09-01T10:12:09.099Z,68.5
2014-09-01T10:13:13.789Z,67.81
2014-09-01T10:14:18.463Z,67.05
2014-09-01T10:15:23.152Z,67.33
2014-09-01T10:16:27.842Z,67.28
2014-09-01T10:17:32.531Z,66.64
2014-09-01T10:18:37.205Z,66.8
2014-09-01T10:19:41.879Z,67.6
2014-09-01T10:20:46.568Z,66.79
2014-09-01T10:21:51.555Z,66.31
2014-09-01T10:22:56.230Z,66.82
2014-09-01T10:24:00.918Z,66.76
2014-09-01T10:25:05.608Z,66.99
2014-09-01T10:26:10.282Z,67.19
2014-09-01T10:27:14.972Z,66.75
2014-09-01T10:28:19.957Z,67.24
2014-09-01T10:29:24.632Z,66.67
2014-09-01T10:30:29.321Z,66.1
2014-09-01T10:31:34.011Z,65.77
2014-09-01T10:32:38.982Z,65.82
2014-09-01T10:33:43.671Z,65.35
2014-09-01T10:34:48.361Z,65.83
2014-09-01T10:35:53.066Z,65.12
2014-09-01T10:36:57.740Z,65.03
2014-09-01T10:38:02.430Z,64.79
2014-09-01T10:39:07.119Z,64.75
2014-09-01T10:40:12.402Z,64.97
2014-09-01T10:41:17.092Z,65.43
2014-09-01T10:42:22.079Z,65.54
2014-09-01T10:43:26.768Z,64.73
2014-09-01T10:44:31.755Z,64.92
2014-09-01T10:45:36.725Z,64.4
2014-09-01T10:46:41.415Z,64.51
2014-09-01T10:47:46.105Z,63.88
2014-09-01T10:48:50.779Z,63.37
2014-09-01T10:49:55.468Z,63.17
2014-09-01T10:51:00.159Z,63.19
2014-09-01T10:52:05.144Z,63.19
2014-09-01T10:53:09.833Z,63.43
2014-09-01T10:54:14.508Z,63.09
2014-09-01T10:55:19.197Z,63.5
2014-09-01T10:56:24.184Z,63.42
2014-09-01T10:57:28.857Z,62.88
2014-09-01T10:58:33.548Z,63.17
2014-09-01T10:59:38.237Z,63.76
2014-09-01T11:00:42.911Z,63.67
2014-09-01T11:01:47.897Z,63.33
2014-09-01T11:02:52.587Z,62.51
2014-09-01T11:03:57.261Z,61.46
2014-09-01T11:05:01.950Z,61.21
2014-09-01T11:06:06.624Z,60.56
2014-09-01T11:07:11.315Z,60.62
2014-09-01T11:08:16.004Z,60.95
2014-09-01T11:09:20.693Z,61.77
2014-09-01T11:10:25.383Z,60.8
2014-09-01T11:11:30.353Z,59.43
2014-09-01T11:12:35.043Z,60.62
2014-09-01T11:13:39.733Z,60.89
2014-09-01T11:14:44.421Z,58.93
2014-09-01T11:15:49.111Z,58.21
2014-09-01T11:16:53.800Z,58.48
2014-09-01T11:17:58.788Z,58.97
2014-09-01T11:19:03.477Z,58.38
2014-09-01T11:20:08.151Z,57.81
2014-09-01T11:21:12.842Z,59.91
2014-09-01T11:22:17.530Z,57.97
2014-09-01T11:23:22.516Z,57.63
2014-09-01T11:24:27.191Z,59.99
2014-09-01T11:25:31.880Z,59
2014-09-01T11:26:36.554Z,58.23
2014-09-01T11:27:41.244Z,56.69
2014-09-01T11:28:45.918Z,57.77
2014-09-01T11:29:50.904Z,58.1
2014-09-01T11:30:55.578Z,58.29
2014-09-01T11:32:00.267Z,59.64
2014-09-01T11:33:04.941Z,56.52
2014-09-01T11:34:09.928Z,56.98
2014-09-01T11:35:14.602Z,60.37
2014-09-01T11:36:19.291Z,55.46
2014-09-01T11:37:24.262Z,55.87
2014-09-01T11:38:28.952Z,56.08
2014-09-01T11:39:33.641Z,54.73
2014-09-01T11:40:38.315Z,53.65
2014-09-01T11:41:43.005Z,54.44
2014-09-01T11:42:47.975Z,53.95
2014-09-01T11:43:52.665Z,54.81
2014-09-01T11:44:57.354Z,54.13
2014-09-01T11:46:02.029Z,54.83
2014-09-01T11:47:07.015Z,54.75
2014-09-01T11:48:11.705Z,54.4
2014-09-01T11:49:16.676Z,53.41
2014-09-01T11:50:21.365Z,53.33
2014-09-01T11:51:26.039Z,55.41
2014-09-01T11:52:30.729Z,53.52
2014-09-01T11:53:35.716Z,52.73
2014-09-01T11:54:40.389Z,52.28
2014-09-01T11:55:45.079Z,52.93
2014-09-01T11:56:49.769Z,54.43
2014-09-01T11:57:54.442Z,54.18
2014-09-01T11:58:59.132Z,54.06
2014-09-01T12:00:04.103Z,54.28
2014-09-01T12:01:08.793Z,54.31
2014-09-01T12:02:13.482Z,53.44
2014-09-01T12:03:18.172Z,53.57
2014-09-01T12:04:22.845Z,54.4
2014-09-01T12:05:27.535Z,53.61
2014-09-01T12:06:32.209Z,54.21
2014-09-01T12:07:36.898Z,54.47
2014-09-01T12:08:41.572Z,56.69
2014-09-01T12:09:46.559Z,55.84
2014-09-01T12:10:51.248Z,55.57
2014-09-01T12:11:55.939Z,53.84
2014-09-01T12:13:00.925Z,54.65
2014-09-01T12:14:05.613Z,53.32
2014-09-01T12:15:10.288Z,53.52
2014-09-01T12:16:14.977Z,53.91
2014-09-01T12:17:19.964Z,53.36
2014-09-01T12:18:24.935Z,54.88
2014-09-01T12:19:29.624Z,55.98
2014-09-01T12:20:34.314Z,56.31
2014-09-01T12:21:39.285Z,55.74
2014-09-01T12:22:43.974Z,56.1
2014-09-01T12:23:48.648Z,57.23
2014-09-01T12:24:53.635Z,56.19
2014-09-01T12:25:58.324Z,56.81
2014-09-01T12:27:03.295Z,57.08
2014-09-01T12:28:08.001Z,54.93
2014-09-01T12:29:12.674Z,53.69
2014-09-01T12:30:17.676Z,53.54
2014-09-01T12:31:21.679Z,53.46
2014-09-01T12:32:26.368Z,53.34
2014-09-01T12:33:31.042Z,54.5
2014-09-01T12:34:35.732Z,54.04
2014-09-01T12:35:40.718Z,53.86
2014-09-01T12:36:45.392Z,53.97
2014-09-01T12:37:50.081Z,54.17
2014-09-01T12:38:54.771Z,54
2014-09-01T12:39:59.445Z,53.34
2014-09-01T12:41:04.431Z,53.45
2014-09-01T12:42:09.122Z,52.98
2014-09-01T12:43:13.811Z,52.96
2014-09-01T12:44:18.484Z,53.31
2014-09-01T12:45:23.174Z,52.9
2014-09-01T12:46:27.848Z,53.34
2014-09-01T12:47:32.538Z,53.5
2014-09-01T12:48:37.523Z,55.2
2014-09-01T12:49:42.495Z,54.21
2014-09-01T12:50:47.184Z,53.89
2014-09-01T12:51:51.858Z,54.99
2014-09-01T12:52:56.548Z,56.15
2014-09-01T12:54:01.534Z,56.24
2014-09-01T12:55:06.208Z,55.56
2014-09-01T12:56:10.899Z,55.85
2014-09-01T12:57:15.588Z,56.13
2014-09-01T12:58:20.261Z,57.95
2014-09-01T12:59:25.247Z,55.95
2014-09-01T13:00:30.219Z,57.48
2014-09-01T13:01:34.909Z,56.22
2014-09-01T13:02:39.598Z,57.37
2014-09-01T13:03:44.272Z,58.6
2014-09-01T13:04:48.961Z,59.03
2014-09-01T13:05:53.932Z,58.44
2014-09-01T13:06:58.622Z,57.21
2014-09-01T13:08:03.312Z,58.21
2014-09-01T13:09:08.282Z,58.9
2014-09-01T13:10:12.972Z,57.64
2014-09-01T13:11:17.959Z,57.86
2014-09-01T13:12:22.930Z,59.9
2014-09-01T13:13:27.619Z,59.38
2014-09-01T13:14:32.589Z,58.62
2014-09-01T13:15:37.279Z,60.03
2014-09-01T13:16:41.953Z,58.3
2014-09-01T13:17:46.939Z,58.2
2014-09-01T13:18:51.629Z,58.48
2014-09-01T13:19:56.303Z,59.39
2014-09-01T13:21:01.289Z,60.41
2014-09-01T13:22:06.276Z,60.09
2014-09-01T13:23:10.951Z,60.97
2014-09-01T13:24:15.639Z,58.93
2014-09-01T13:25:20.625Z,58.85
2014-09-01T13:26:25.300Z,60.64
2014-09-01T13:27:29.989Z,60.38
2014-09-01T13:28:34.663Z,60.65
2014-09-01T13:29:39.947Z,60.27
2014-09-01T13:30:44.933Z,60.91
2014-09-01T13:31:49.607Z,60.95
2014-09-01T13:32:54.594Z,60.57
2014-09-01T13:33:59.299Z,60.19
2014-09-01T13:35:03.974Z,60.82
2014-09-01T13:36:08.662Z,59.86
2014-09-01T13:37:13.352Z,59.58
2014-09-01T13:38:18.323Z,60.34
2014-09-01T13:39:23.012Z,60
2014-09-01T13:40:27.686Z,59.99
2014-09-01T13:41:32.376Z,59.86
2014-09-01T13:42:37.050Z,60.3
2014-09-01T13:43:42.036Z,60.44
2014-09-01T13:44:46.726Z,59.66
2014-09-01T13:45:51.431Z,59.91
2014-09-01T13:46:56.105Z,59.99
2014-09-01T13:48:01.091Z,60.78
2014-09-01T13:49:05.781Z,60.23
2014-09-01T13:50:10.455Z,59.47
2014-09-01T13:51:15.144Z,60.09
2014-09-01T13:52:19.818Z,59.47
2014-09-01T13:53:24.805Z,59.51
2014-09-01T13:54:29.495Z,60.07
2014-09-01T13:55:34.183Z,59.63
2014-09-01T13:56:39.155Z,59.67